createdAt,value
2018-06-22T00:01:56.516Z,1276.03
2018-06-22T00:04:44.143Z,1315.97
2018-06-22T00:07:29.138Z,1375.27
2018-06-22T00:10:12.823Z,1552.97
2018-06-22T00:12:56.459Z,1795.47
2018-06-22T00:15:39.339Z,1999.90
2018-06-22T00:18:21.015Z,1999.90
2018-06-22T00:21:05.356Z,1999.90
2018-06-22T00:23:57.824Z,1999.90
2018-06-22T00:26:49.580Z,1999.90
2018-06-22T00:29:31.038Z,1999.90
2018-06-22T00:32:21.705Z,1999.90
2018-06-22T00:35:07.082Z,1999.90
2018-06-22T00:37:49.638Z,1999.90
2018-06-22T00:40:32.322Z,1999.90
2018-06-22T00:46:06.963Z,1999.90
2018-06-22T00:48:56.837Z,1999.90
2018-06-22T00:51:40.118Z,1999.90
2018-06-22T00:54:30.657Z,1999.90
2018-06-22T00:57:16.401Z,1999.90
2018-06-22T01:00:01.480Z,1999.90
2018-06-22T01:02:46.278Z,1999.90
2018-06-22T01:05:29.458Z,1061.17
2018-06-22T01:08:13.679Z,1442.53
2018-06-22T01:10:59.120Z,1277.70
2018-06-22T01:13:42.339Z,1114.17
2018-06-22T01:16:26.296Z,1004.97
2018-06-22T01:19:13.496Z,350.13
2018-06-22T01:21:53.879Z,332.73
2018-06-22T01:24:36.118Z,762.97
2018-06-22T01:27:17.744Z,1000.00
2018-06-22T01:30:03.643Z,1121.67
2018-06-22T01:32:48.126Z,1205.10
2018-06-22T01:35:32.956Z,1247.00
2018-06-22T01:38:15.677Z,1257.07
2018-06-22T01:41:05.239Z,1298.20
2018-06-22T01:43:47.480Z,1289.10
2018-06-22T01:46:30.263Z,1242.90
2018-06-22T01:49:14.462Z,1284.13
2018-06-22T01:51:57.797Z,1172.63
2018-06-22T01:54:39.904Z,1027.80
2018-06-22T01:57:25.099Z,1189.83
2018-06-22T02:00:07.304Z,730.63
2018-06-22T02:02:51.357Z,1026.80
2018-06-22T02:05:31.858Z,367.30
2018-06-22T02:08:14.718Z,450.73
2018-06-22T02:10:58.215Z,273.77
2018-06-22T02:13:40.545Z,535.63
2018-06-22T02:16:26.958Z,371.20
2018-06-22T02:19:14.319Z,850.63
2018-06-22T02:21:58.157Z,1004.20
2018-06-22T02:24:42.418Z,1018.37
2018-06-22T02:27:23.770Z,1009.20
2018-06-22T02:30:06.064Z,1055.13
2018-06-22T02:32:51.543Z,977.27
2018-06-22T02:35:34.339Z,969.70
2018-06-22T02:38:23.596Z,1029.57
2018-06-22T02:41:12.957Z,1040.87
2018-06-22T02:44:03.582Z,991.83
2018-06-22T02:46:47.025Z,1030.57
2018-06-22T02:49:29.541Z,920.77
2018-06-22T02:52:19.104Z,932.07
2018-06-22T02:55:02.345Z,857.50
2018-06-22T03:00:37.235Z,778.17
2018-06-22T03:03:18.223Z,760.23
2018-06-22T03:06:00.941Z,685.23
2018-06-22T03:08:42.179Z,657.93
2018-06-22T03:11:25.741Z,574.50
2018-06-22T03:14:11.060Z,504.97
2018-06-22T03:16:55.861Z,374.50
2018-06-22T03:19:43.396Z,285.30
2018-06-22T03:22:26.558Z,259.50
2018-06-22T03:25:08.718Z,287.90
2018-06-22T03:27:52.183Z,350.27
2018-06-22T03:30:36.699Z,393.53
2018-06-22T03:33:27.579Z,513.87
2018-06-22T03:36:11.821Z,537.77
2018-06-22T03:38:55.007Z,527.70
2018-06-22T03:41:39.437Z,520.07
2018-06-22T03:44:23.802Z,520.93
2018-06-22T03:47:05.682Z,477.83
2018-06-22T03:49:46.340Z,439.27
2018-06-22T03:52:28.497Z,373.63
2018-06-22T03:55:11.356Z,210.87
2018-06-22T03:57:55.275Z,345.87
2018-06-22T04:00:43.119Z,415.67
2018-06-22T04:03:23.860Z,486.20
2018-06-22T04:06:05.399Z,375.77
2018-06-22T04:08:48.062Z,255.87
2018-06-22T04:11:35.022Z,225.80
2018-06-22T04:14:20.895Z,228.97
2018-06-22T04:17:04.816Z,209.50
2018-06-22T04:19:47.460Z,258.07
2018-06-22T04:22:28.898Z,224.80
2018-06-22T04:25:13.186Z,294.40
2018-06-22T04:27:54.539Z,243.23
2018-06-22T04:30:37.060Z,291.33
2018-06-22T04:33:18.717Z,282.80
2018-06-22T04:36:12.783Z,374.00
2018-06-22T04:38:53.942Z,246.83
2018-06-22T04:41:36.302Z,243.80
2018-06-22T04:44:23.655Z,242.53
2018-06-22T04:47:07.561Z,458.63
2018-06-22T04:49:59.341Z,361.30
2018-06-22T04:52:41.304Z,556.43
2018-06-22T04:55:21.160Z,414.87
2018-06-22T04:58:03.222Z,799.03
2018-06-22T05:00:46.262Z,627.10
2018-06-22T05:03:31.102Z,606.20
2018-06-22T05:06:17.201Z,736.50
2018-06-22T05:09:00.597Z,527.17
2018-06-22T05:11:43.541Z,478.30
2018-06-22T05:14:27.203Z,409.57
2018-06-22T05:17:09.978Z,314.57
2018-06-22T05:19:50.985Z,345.47
2018-06-22T05:22:33.169Z,423.33
2018-06-22T05:25:17.838Z,707.57
2018-06-22T05:27:57.297Z,1008.67
2018-06-22T05:30:39.680Z,1186.90
2018-06-22T05:33:22.680Z,1168.40
2018-06-22T05:36:05.300Z,1198.87
2018-06-22T05:38:44.799Z,986.93
2018-06-22T05:41:25.017Z,957.23
2018-06-22T05:44:06.841Z,1139.50
2018-06-22T05:46:49.937Z,999.83
2018-06-22T05:49:32.938Z,825.03
2018-06-22T05:52:16.282Z,968.13
2018-06-22T05:55:03.081Z,1017.47
2018-06-22T05:57:44.503Z,1115.50
2018-06-22T06:00:31.640Z,598.30
2018-06-22T06:03:14.097Z,493.47
2018-06-22T06:05:54.644Z,902.40
2018-06-22T06:08:49.020Z,1007.77
2018-06-22T06:11:34.077Z,1146.63
2018-06-22T06:14:23.882Z,1244.93
2018-06-22T06:17:04.243Z,1307.30
2018-06-22T06:19:47.240Z,1344.90
2018-06-22T06:22:29.459Z,1172.83
2018-06-22T06:25:12.341Z,1257.77
2018-06-22T06:27:54.541Z,1326.73
2018-06-22T06:30:32.896Z,492.87
2018-06-22T06:33:14.819Z,280.60
2018-06-22T06:35:55.198Z,320.27
2018-06-22T06:38:36.469Z,489.93
2018-06-22T06:41:17.537Z,178.33
2018-06-22T06:44:01.043Z,146.60
2018-06-22T06:46:43.075Z,635.70
2018-06-22T06:49:23.923Z,465.87
2018-06-22T06:52:13.441Z,1072.10
2018-06-22T06:55:01.160Z,558.33
2018-06-22T06:57:45.118Z,852.83
2018-06-22T07:00:26.520Z,685.90
2018-06-22T07:03:11.458Z,669.37
2018-06-22T07:05:50.319Z,904.63
2018-06-22T07:08:35.140Z,578.80
2018-06-22T07:11:20.461Z,192.10
2018-06-22T07:14:07.960Z,50.53
2018-06-22T07:16:49.458Z,277.67
2018-06-22T07:19:35.326Z,258.23
2018-06-22T07:22:14.682Z,55.70
2018-06-22T07:24:55.084Z,298.67
2018-06-22T07:27:47.205Z,156.43
2018-06-22T07:30:27.980Z,113.07
2018-06-22T07:33:09.421Z,250.27
2018-06-22T07:35:50.226Z,459.67
2018-06-22T07:38:37.236Z,528.03
2018-06-22T07:41:17.639Z,535.13
2018-06-22T07:44:01.073Z,263.43
2018-06-22T07:46:44.563Z,63.73
2018-06-22T07:49:26.757Z,36.30
2018-06-22T07:52:04.504Z,61.10
2018-06-22T07:54:45.088Z,34.00
2018-06-22T07:57:28.243Z,31.63
2018-06-22T08:00:14.681Z,26.97
2018-06-22T08:02:56.242Z,27.10
2018-06-22T08:05:34.699Z,28.17
2018-06-22T08:08:14.117Z,27.62
2018-06-22T08:10:56.925Z,27.97
2018-06-22T08:13:36.001Z,28.03
2018-06-22T08:16:13.979Z,31.83
2018-06-22T08:18:53.176Z,36.57
2018-06-22T08:21:38.420Z,44.87
2018-06-22T08:24:18.139Z,40.67
2018-06-22T08:27:01.940Z,45.83
2018-06-22T08:29:43.483Z,45.30
2018-06-22T08:32:22.259Z,46.63
2018-06-22T08:35:02.058Z,45.63
2018-06-22T08:37:43.916Z,44.17
2018-06-22T08:40:23.596Z,52.30
2018-06-22T08:43:04.752Z,143.77
2018-06-22T08:45:49.640Z,223.73
2018-06-22T08:48:33.465Z,310.23
2018-06-22T08:51:16.501Z,351.27
2018-06-22T08:53:57.003Z,480.03
2018-06-22T08:56:39.743Z,593.83
2018-06-22T08:59:23.161Z,644.70
2018-06-22T09:02:05.142Z,738.17
2018-06-22T09:04:46.576Z,824.87
2018-06-22T09:07:27.139Z,847.07
2018-06-22T09:10:05.821Z,821.47
2018-06-22T09:12:45.801Z,779.80
2018-06-22T09:15:25.220Z,796.83
2018-06-22T09:18:06.826Z,813.93
2018-06-22T09:20:51.639Z,784.20
2018-06-22T09:23:34.877Z,749.60
2018-06-22T09:26:16.844Z,709.53
2018-06-22T09:28:57.484Z,678.97
2018-06-22T09:31:36.479Z,662.83
2018-06-22T09:34:16.243Z,631.07
2018-06-22T09:36:57.342Z,677.10
2018-06-22T09:39:37.119Z,649.43
2018-06-22T09:42:20.897Z,701.63
2018-06-22T09:45:04.983Z,867.27
2018-06-22T09:47:45.396Z,875.60
2018-06-22T09:50:25.022Z,860.90
2018-06-22T09:53:04.412Z,1122.73
2018-06-22T09:55:47.401Z,1098.17
2018-06-22T09:58:29.621Z,1080.33
2018-06-22T10:01:11.138Z,1050.83
2018-06-22T10:03:50.163Z,1030.27
2018-06-22T10:06:30.658Z,1010.00
2018-06-22T10:09:13.219Z,809.97
2018-06-22T10:11:55.861Z,391.07
2018-06-22T10:14:38.638Z,871.17
2018-06-22T10:17:20.761Z,1514.60
2018-06-22T10:20:01.485Z,1999.90
2018-06-22T10:22:40.922Z,1999.90
2018-06-22T10:25:25.755Z,1832.97
2018-06-22T10:28:04.763Z,1999.90
2018-06-22T10:30:47.359Z,1999.90
2018-06-22T10:33:30.323Z,1517.60
2018-06-22T10:36:10.999Z,1791.17
2018-06-22T10:38:52.279Z,1200.57
2018-06-22T10:41:28.621Z,962.17
2018-06-22T10:44:14.943Z,410.37
2018-06-22T10:46:58.017Z,817.57
2018-06-22T10:49:37.543Z,271.87
2018-06-22T10:52:18.200Z,931.97
2018-06-22T10:54:56.621Z,794.07
2018-06-22T10:57:35.761Z,810.53
2018-06-22T11:00:18.844Z,521.17
2018-06-22T11:03:03.439Z,702.93
2018-06-22T11:05:50.447Z,789.33
2018-06-22T11:08:30.223Z,578.67
2018-06-22T11:11:11.082Z,131.90
2018-06-22T11:13:50.424Z,71.47
2018-06-22T11:16:31.806Z,148.43
2018-06-22T11:19:13.741Z,468.13
2018-06-22T11:21:54.820Z,254.97
2018-06-22T11:24:35.181Z,631.13
2018-06-22T11:27:14.662Z,815.13
2018-06-22T11:29:56.779Z,773.73
2018-06-22T11:32:37.877Z,994.20
2018-06-22T11:35:16.727Z,582.20
2018-06-22T11:37:58.663Z,916.83
2018-06-22T11:40:42.558Z,656.77
2018-06-22T11:43:21.863Z,774.73
2018-06-22T11:46:05.237Z,843.70
2018-06-22T11:48:50.643Z,653.37
2018-06-22T11:51:32.061Z,821.33
2018-06-22T11:54:16.782Z,734.20
2018-06-22T11:56:58.860Z,705.00
2018-06-22T11:59:42.822Z,911.37
2018-06-22T12:02:21.557Z,838.50
2018-06-22T12:05:04.519Z,916.40
2018-06-22T12:07:44.841Z,859.43
2018-06-22T12:10:35.865Z,882.67
2018-06-22T12:13:17.198Z,774.10
2018-06-22T12:16:00.260Z,618.20
2018-06-22T12:18:42.495Z,622.33
2018-06-22T12:21:22.465Z,660.57
2018-06-22T12:24:02.299Z,195.07
2018-06-22T12:26:40.661Z,906.63
2018-06-22T12:29:22.418Z,1719.77
2018-06-22T12:32:09.660Z,1999.90
2018-06-22T12:34:54.137Z,1999.90
2018-06-22T12:37:37.400Z,1999.90
2018-06-22T12:40:20.379Z,282.67
2018-06-22T12:42:59.296Z,267.47
2018-06-22T12:45:48.648Z,719.83
2018-06-22T12:48:31.560Z,890.00
2018-06-22T12:51:14.057Z,814.93
2018-06-22T12:53:54.951Z,690.13
2018-06-22T12:56:37.338Z,289.33
2018-06-22T12:59:21.219Z,125.77
2018-06-22T13:02:03.284Z,81.27
2018-06-22T13:04:44.233Z,74.00
2018-06-22T13:07:23.560Z,138.27
2018-06-22T13:10:09.828Z,260.13
2018-06-22T13:12:49.303Z,470.17
2018-06-22T13:15:31.866Z,633.63
2018-06-22T13:18:13.605Z,617.30
2018-06-22T13:20:58.088Z,391.40
2018-06-22T13:23:38.143Z,589.20
2018-06-22T13:26:21.166Z,689.00
2018-06-22T13:29:03.420Z,665.30
2018-06-22T13:31:45.135Z,559.57
2018-06-22T13:34:27.126Z,880.67
2018-06-22T13:37:07.636Z,421.90
2018-06-22T13:39:53.296Z,66.23
2018-06-22T13:42:39.736Z,338.20
2018-06-22T13:45:24.958Z,389.33
2018-06-22T13:48:08.702Z,86.77
2018-06-22T13:50:52.938Z,69.57
2018-06-22T13:53:35.522Z,64.43
2018-06-22T13:56:14.340Z,96.40
2018-06-22T13:58:55.642Z,91.93
2018-06-22T14:01:37.701Z,141.13
2018-06-22T14:04:22.720Z,173.30
2018-06-22T14:07:05.660Z,181.43
2018-06-22T14:09:49.162Z,201.13
2018-06-22T14:12:33.099Z,212.97
2018-06-22T14:15:16.925Z,343.83
2018-06-22T14:18:04.699Z,426.53
2018-06-22T14:20:49.841Z,504.93
2018-06-22T14:23:33.040Z,703.83
2018-06-22T14:26:16.068Z,685.20
2018-06-22T14:28:56.058Z,56.33
2018-06-22T14:31:37.167Z,398.17
2018-06-22T14:34:24.018Z,338.03
2018-06-22T14:37:05.720Z,547.33
2018-06-22T14:39:45.197Z,858.80
2018-06-22T14:42:29.705Z,712.17
2018-06-22T14:45:10.280Z,504.07
2018-06-22T14:47:53.207Z,353.70
2018-06-22T14:50:36.642Z,196.20
2018-06-22T14:53:25.921Z,113.70
2018-06-22T14:56:08.039Z,82.37
2018-06-22T14:58:54.765Z,71.67
2018-06-22T15:01:37.722Z,55.57
2018-06-22T15:04:20.370Z,86.10
2018-06-22T15:07:05.899Z,69.37
2018-06-22T15:09:46.917Z,79.97
2018-06-22T15:12:32.519Z,461.47
2018-06-22T15:15:11.395Z,260.10
2018-06-22T15:17:59.382Z,427.63
2018-06-22T15:20:44.603Z,1999.90
2018-06-22T15:23:24.853Z,1999.90
2018-06-22T15:26:07.062Z,939.37
2018-06-22T15:28:46.757Z,478.63
2018-06-22T15:31:34.911Z,369.83
2018-06-22T15:34:24.740Z,217.67
2018-06-22T15:37:09.130Z,276.13
2018-06-22T15:39:59.539Z,604.70
2018-06-22T15:42:45.556Z,604.27
2018-06-22T15:45:32.086Z,823.40
2018-06-22T15:48:16.182Z,545.13
2018-06-22T15:50:59.264Z,232.27
2018-06-22T15:53:46.605Z,750.20
2018-06-22T15:56:31.783Z,610.27
2018-06-22T15:59:13.141Z,471.87
2018-06-22T16:01:59.042Z,488.73
2018-06-22T16:04:39.018Z,510.37
2018-06-22T16:07:22.338Z,441.07
2018-06-22T16:10:09.784Z,983.57
2018-06-22T16:12:49.242Z,1999.90
2018-06-22T16:15:36.261Z,1840.23
2018-06-22T16:18:20.624Z,906.67
2018-06-22T16:21:10.443Z,124.93
2018-06-22T16:23:54.941Z,105.80
2018-06-22T16:26:39.224Z,117.13
2018-06-22T16:29:19.545Z,651.07
2018-06-22T16:32:02.121Z,728.03
2018-06-22T16:34:45.683Z,791.27
2018-06-22T16:37:27.999Z,950.40
2018-06-22T16:40:07.697Z,1071.90
2018-06-22T16:42:47.396Z,229.87
2018-06-22T16:45:28.620Z,267.20
2018-06-22T16:48:08.363Z,749.87
2018-06-22T16:50:49.769Z,748.33
2018-06-22T16:53:33.157Z,344.17
2018-06-22T16:56:13.298Z,520.63
2018-06-22T16:58:53.838Z,619.97
2018-06-22T17:01:38.595Z,942.20
2018-06-22T17:04:21.162Z,916.40
2018-06-22T17:07:08.177Z,1101.37
2018-06-22T17:09:53.786Z,1173.00
2018-06-22T17:12:39.178Z,1216.30
2018-06-22T17:15:27.008Z,1257.97
2018-06-22T17:18:11.867Z,1151.53
2018-06-22T17:20:51.678Z,1242.20
2018-06-22T17:23:31.919Z,1194.37
2018-06-22T17:26:14.819Z,1172.67
2018-06-22T17:28:58.140Z,1226.73
2018-06-22T17:31:44.220Z,1228.83
2018-06-22T17:34:30.377Z,1231.40
2018-06-22T17:37:12.396Z,1005.37
2018-06-22T17:39:55.123Z,1044.60
2018-06-22T17:42:35.628Z,1208.50
2018-06-22T17:45:18.119Z,1169.97
2018-06-22T17:47:59.924Z,1194.13
2018-06-22T17:50:44.321Z,1016.17
2018-06-22T17:53:25.939Z,1214.00
2018-06-22T17:56:06.286Z,1218.00
2018-06-22T17:58:50.741Z,1128.57
2018-06-22T18:01:36.401Z,1201.03
2018-06-22T18:04:21.949Z,830.53
2018-06-22T18:07:06.963Z,1167.63
2018-06-22T18:09:50.083Z,1015.87
2018-06-22T18:12:38.185Z,1187.33
2018-06-22T18:15:17.187Z,1139.00
2018-06-22T18:18:01.878Z,831.00
2018-06-22T18:20:46.607Z,556.50
2018-06-22T18:23:31.462Z,1079.57
2018-06-22T18:26:12.405Z,834.67
2018-06-22T18:28:51.122Z,1162.47
2018-06-22T18:31:29.343Z,337.03
2018-06-22T18:34:10.120Z,1337.07
2018-06-22T18:36:51.661Z,747.37
2018-06-22T18:39:31.600Z,276.53
2018-06-22T18:42:12.138Z,555.13
2018-06-22T18:44:52.501Z,450.83
2018-06-22T18:47:34.076Z,199.73
2018-06-22T18:50:16.401Z,451.03
2018-06-22T18:52:59.905Z,220.17
2018-06-22T18:55:42.258Z,745.37
2018-06-22T18:58:24.563Z,268.83
2018-06-22T19:01:09.441Z,488.53
2018-06-22T19:03:53.845Z,607.50
2018-06-22T19:06:34.842Z,891.80
2018-06-22T19:09:17.245Z,1102.73
2018-06-22T19:12:00.048Z,977.00
2018-06-22T19:14:39.200Z,1055.37
2018-06-22T19:17:18.942Z,953.63
2018-06-22T19:20:00.916Z,720.37
2018-06-22T19:22:42.678Z,916.97
2018-06-22T19:25:21.477Z,584.27
2018-06-22T19:28:03.318Z,402.10
2018-06-22T19:30:46.138Z,559.23
2018-06-22T19:33:27.680Z,638.37
2018-06-22T19:36:09.780Z,735.37
2018-06-22T19:38:53.319Z,528.80
2018-06-22T19:41:38.197Z,702.27
2018-06-22T19:44:25.839Z,704.33
2018-06-22T19:47:15.440Z,515.27
2018-06-22T19:49:59.339Z,465.83
2018-06-22T19:52:45.338Z,341.63
2018-06-22T19:55:25.682Z,445.73
2018-06-22T19:58:10.981Z,529.20
2018-06-22T20:00:52.282Z,496.97
2018-06-22T20:03:33.200Z,413.00
2018-06-22T20:06:13.801Z,714.23
2018-06-22T20:08:57.060Z,321.47
2018-06-22T20:11:42.737Z,606.97
2018-06-22T20:14:23.380Z,727.37
2018-06-22T20:17:07.421Z,793.70
2018-06-22T20:19:51.300Z,776.63
2018-06-22T20:22:39.662Z,350.77
2018-06-22T20:25:25.801Z,438.90
2018-06-22T20:28:14.342Z,464.13
2018-06-22T20:31:01.520Z,630.87
2018-06-22T20:33:47.659Z,686.07
2018-06-22T20:36:33.125Z,765.83
2018-06-22T20:39:23.297Z,504.43
2018-06-22T20:42:11.126Z,680.93
2018-06-22T20:44:57.762Z,699.30
2018-06-22T20:47:47.416Z,823.27
2018-06-22T20:50:33.598Z,824.67
2018-06-22T20:53:17.298Z,839.07
2018-06-22T20:55:59.383Z,739.37
2018-06-22T20:58:47.079Z,921.53
2018-06-22T21:01:33.108Z,767.47
2018-06-22T21:04:14.783Z,857.80
2018-06-22T21:07:02.621Z,1029.90
2018-06-22T21:09:41.298Z,795.20
2018-06-22T21:12:26.257Z,528.80
2018-06-22T22:33:58.597Z,906.13
2018-06-22T22:36:40.181Z,910.13
2018-06-22T22:39:19.474Z,878.53
2018-06-22T22:42:04.212Z,846.37
2018-06-22T22:44:46.832Z,762.53
2018-06-22T22:47:37.054Z,531.73
2018-06-22T22:50:25.593Z,503.10
2018-06-22T22:53:11.412Z,509.33
2018-06-22T22:55:57.941Z,567.83
2018-06-22T22:58:38.570Z,583.77
2018-06-22T23:01:22.297Z,605.73
2018-06-22T23:04:07.856Z,467.97
2018-06-22T23:06:53.912Z,607.73
2018-06-22T23:09:39.693Z,656.77
2018-06-22T23:12:24.177Z,677.83
2018-06-22T23:15:09.620Z,687.10
2018-06-22T23:17:55.571Z,743.13
2018-06-22T23:20:34.656Z,815.97
2018-06-22T23:23:29.458Z,867.50
2018-06-22T23:26:15.838Z,876.97
2018-06-22T23:28:56.872Z,890.50
2018-06-22T23:31:38.833Z,912.00
2018-06-22T23:34:22.853Z,976.53
2018-06-22T23:37:04.493Z,934.50
2018-06-22T23:39:44.218Z,995.03
2018-06-22T23:42:23.761Z,998.33
2018-06-22T23:45:02.836Z,998.20
2018-06-22T23:47:42.157Z,994.90
2018-06-22T23:50:22.612Z,1037.60
2018-06-22T23:53:01.808Z,915.70
2018-06-22T23:55:40.915Z,793.20
2018-06-22T23:58:23.912Z,721.10
